Time;durP1;ratioP1;P1;durP2;ratioP2;P2;SDS_P1;SDS_P2;PMS_P1;PMS_P2;Temp;Humidity;BMP_temperature;BMP_pressure;BME280_temperature;BME280_humidity;BME280_pressure;Samples;Min_cycle;Max_cycle;Signal;HPM_P1;HPM_P2
2023/01/25 00:00:25;;;;;;;73.32;39.53;;;;;;;1.07;100.00;101948.94;5112272;28;20038;-66
2023/01/25 00:02:50;;;;;;;70.00;37.45;;;;;;;1.17;100.00;101954.88;5112147;28;20020;-67
2023/01/25 00:05:16;;;;;;;72.82;39.53;;;;;;;1.20;100.00;101946.88;5110862;28;20023;-67
2023/01/25 00:07:41;;;;;;;83.00;40.55;;;;;;;1.13;100.00;101937.38;5112087;28;20032;-68
2023/01/25 00:10:07;;;;;;;87.30;41.53;;;;;;;1.31;100.00;101963.34;5112682;28;20484;-68
2023/01/25 00:12:33;;;;;;;80.78;42.55;;;;;;;1.35;100.00;101963.22;5111066;28;20509;-67
2023/01/25 00:14:58;;;;;;;80.85;41.60;;;;;;;1.44;100.00;101959.50;5112699;28;20031;-68
2023/01/25 00:17:25;;;;;;;79.28;40.65;;;;;;;1.45;100.00;101964.75;5111623;28;20027;-67
2023/01/25 00:19:50;;;;;;;81.40;41.22;;;;;;;1.51;100.00;101956.66;5112375;28;20031;-67
2023/01/25 00:22:16;;;;;;;71.80;38.90;;;;;;;1.54;100.00;101961.00;5111893;28;20042;-67
2023/01/25 00:24:41;;;;;;;79.38;40.38;;;;;;;1.55;100.00;101950.38;5112030;28;20020;-68
2023/01/25 00:27:07;;;;;;;70.82;38.83;;;;;;;1.63;100.00;101961.66;5112356;28;20019;-68
2023/01/25 00:33:38;;;;;;;65.40;33.08;;;;;;;1.75;100.00;101964.00;5111946;28;20072;-67
2023/01/25 00:36:28;;;;;;;56.63;31.45;;;;;;;1.78;100.00;101968.34;5073709;28;20046;-68
2023/01/25 00:38:56;;;;;;;58.38;30.67;;;;;;;1.83;100.00;101963.78;5111325;28;20476;-69
2023/01/25 00:44:43;;;;;;;54.28;28.73;;;;;;;1.81;100.00;101949.75;5111612;28;20569;-68
2023/01/25 00:50:30;;;;;;;52.38;27.25;;;;;;;1.98;100.00;101972.19;5111242;28;20049;-67
2023/01/25 00:52:55;;;;;;;52.78;28.20;;;;;;;1.96;100.00;101962.53;5111290;28;20528;-68
2023/01/25 00:55:21;;;;;;;47.35;28.30;;;;;;;2.07;100.00;101974.56;5111509;28;20355;-67
2023/01/25 00:57:46;;;;;;;48.67;26.15;;;;;;;2.12;100.00;101966.53;5111662;28;20051;-67
2023/01/25 01:00:12;;;;;;;47.90;27.08;;;;;;;2.12;100.00;101967.41;5110432;28;20024;-69
2023/01/25 01:02:38;;;;;;;45.47;26.35;;;;;;;2.16;100.00;101965.56;5111695;28;20016;-67
2023/01/25 01:05:03;;;;;;;47.70;24.85;;;;;;;2.20;100.00;101962.75;5111462;28;20019;-67
2023/01/25 01:07:29;;;;;;;47.17;25.85;;;;;;;2.26;100.00;101973.19;5110333;28;20080;-68
2023/01/25 01:09:54;;;;;;;45.55;25.73;;;;;;;2.27;100.00;101969.63;5111014;28;20031;-67
2023/01/25 01:12:20;;;;;;;45.47;25.67;;;;;;;2.24;100.00;101952.97;5110716;28;20023;-67
2023/01/25 01:14:45;;;;;;;44.22;25.83;;;;;;;2.33;100.00;101969.44;5112008;28;20020;-68
2023/01/25 01:17:11;;;;;;;47.13;25.33;;;;;;;2.34;100.00;101954.44;5111477;28;20027;-68
2023/01/25 01:19:36;;;;;;;46.78;26.05;;;;;;;2.38;100.00;101953.44;5111148;28;20019;-68
2023/01/25 01:22:02;;;;;;;47.72;26.02;;;;;;;2.45;100.00;101959.44;5111185;28;20073;-69
2023/01/25 01:24:27;;;;;;;50.90;26.63;;;;;;;2.47;100.00;101966.41;5113979;28;20043;-68
2023/01/25 01:26:53;;;;;;;48.50;26.25;;;;;;;2.51;100.00;101973.34;5115683;28;20019;-67
2023/01/25 01:29:18;;;;;;;51.08;27.70;;;;;;;2.56;100.00;101970.56;5115407;28;20020;-68
2023/01/25 01:31:44;;;;;;;53.22;27.20;;;;;;;2.54;100.00;101967.13;5115314;28;20084;-68
2023/01/25 01:34:12;;;;;;;52.50;27.73;;;;;;;2.56;100.00;101973.22;5115592;28;20036;-68
2023/01/25 01:36:37;;;;;;;55.80;27.90;;;;;;;2.60;100.00;101966.91;5114170;28;20517;-69
2023/01/25 01:39:03;;;;;;;58.85;31.00;;;;;;;2.66;100.00;101970.28;5114972;28;20043;-68
2023/01/25 01:41:29;;;;;;;56.08;29.65;;;;;;;2.71;100.00;101960.41;5115367;28;20032;-68
2023/01/25 01:43:54;;;;;;;66.70;33.70;;;;;;;2.71;100.00;101959.53;5114402;28;20079;-68
2023/01/25 01:46:25;;;;;;;63.95;32.30;;;;;;;2.73;100.00;101963.88;5114534;28;20538;-68
2023/01/25 01:49:20;;;;;;;69.03;32.65;;;;;;;2.77;100.00;101956.72;5115002;27;20031;-68
2023/01/25 01:52:06;;;;;;;;;;;;;;;2.81;100.00;101956.59;5113969;28;20414;-67
2023/01/25 01:54:41;;;;;;;69.43;32.47;;;;;;;2.82;100.00;101953.00;5114464;28;20004;-67
2023/01/25 01:57:14;;;;;;;76.80;35.20;;;;;;;2.81;100.00;101953.94;5115077;28;20490;-68
2023/01/25 01:59:53;;;;;;;73.68;33.00;;;;;;;2.83;100.00;101946.78;5114261;28;20031;-67
2023/01/25 02:02:18;;;;;;;72.90;34.95;;;;;;;2.87;100.00;101956.38;5113937;28;20483;-68
2023/01/25 02:04:47;;;;;;;77.38;35.20;;;;;;;2.92;100.00;101956.25;5115222;28;20047;-69
2023/01/25 02:07:21;;;;;;;73.97;35.47;;;;;;;2.91;100.00;101946.56;5115012;28;20024;-67
2023/01/25 02:09:49;;;;;;;80.85;34.50;;;;;;;2.89;100.00;101946.59;5115043;28;20388;-68
2023/01/25 02:12:16;;;;;;;72.60;35.38;;;;;;;2.97;100.00;101949.03;5113203;28;20616;-67
2023/01/25 02:14:48;;;;;;;89.53;39.30;;;;;;;3.01;100.00;101955.97;5114726;28;20031;-68
2023/01/25 02:17:14;;;;;;;76.28;35.55;;;;;;;3.02;100.00;101952.38;5114507;28;20023;-68
2023/01/25 02:19:56;;;;;;;86.22;37.60;;;;;;;3.01;100.00;101942.72;5115043;28;20150;-67
2023/01/25 02:22:30;;;;;;;85.15;35.95;;;;;;;3.02;100.00;101937.38;5112643;28;20024;-68
2023/01/25 02:25:08;;;;;;;;;;;;;;;3.05;100.00;101937.28;5115241;28;20028;-67
2023/01/25 02:27:39;;;;;;;82.75;36.92;;;;;;;3.09;100.00;101946.84;5113616;28;19908;-68
2023/01/25 02:30:05;;;;;;;90.38;38.13;;;;;;;2.96;100.00;101921.66;5113883;28;20019;-68
2023/01/25 02:32:31;;;;;;;93.85;37.83;;;;;;;3.15;100.00;101945.78;5114611;28;20041;-68
2023/01/25 02:34:56;;;;;;;84.97;37.67;;;;;;;3.17;100.00;101946.63;5113716;28;20043;-68
2023/01/25 02:37:22;;;;;;;87.70;39.85;;;;;;;3.17;100.00;101942.19;5114524;28;20429;-68
2023/01/25 02:39:48;;;;;;;99.43;38.70;;;;;;;3.16;100.00;101931.66;5114709;28;20493;-68
2023/01/25 02:42:13;;;;;;;104.32;41.40;;;;;;;3.21;100.00;101930.56;5114201;28;20035;-68
2023/01/25 02:44:41;;;;;;;102.20;39.47;;;;;;;3.24;100.00;101935.78;5113466;28;20482;-67
2023/01/25 02:47:06;;;;;;;96.57;40.97;;;;;;;3.29;100.00;101931.19;5113046;28;20028;-68
2023/01/25 02:49:37;;;;;;;96.18;39.63;;;;;;;3.24;100.00;101916.34;5113993;28;20363;-69
2023/01/25 02:52:03;;;;;;;99.25;39.55;;;;;;;3.32;100.00;101925.78;5112874;28;20020;-67
2023/01/25 02:54:30;;;;;;;94.30;40.53;;;;;;;3.36;100.00;101927.44;5114129;28;20052;-67
2023/01/25 02:56:56;;;;;;;90.70;39.33;;;;;;;3.32;100.00;101909.03;5113651;28;20407;-68
2023/01/25 02:59:21;;;;;;;98.63;39.92;;;;;;;3.34;100.00;101909.81;5113408;28;20076;-68
2023/01/25 03:01:48;;;;;;;94.20;38.88;;;;;;;3.41;100.00;101914.00;5113649;28;20027;-68
2023/01/25 03:04:14;;;;;;;89.65;37.95;;;;;;;3.44;100.00;101917.44;5113543;28;20403;-67
2023/01/25 03:06:40;;;;;;;104.10;39.28;;;;;;;3.37;100.00;101907.06;5113238;28;20098;-69
2023/01/25 03:09:08;;;;;;;91.45;37.53;;;;;;;3.45;100.00;101913.84;5114017;28;20023;-69
2023/01/25 03:11:34;;;;;;;96.53;39.67;;;;;;;3.47;100.00;101912.03;5113750;28;20099;-69
2023/01/25 03:14:00;;;;;;;92.45;38.38;;;;;;;3.46;100.00;101909.41;5113965;28;20433;-69
2023/01/25 03:16:25;;;;;;;95.90;38.78;;;;;;;3.52;100.00;101907.41;5113329;28;20046;-69
2023/01/25 03:18:54;;;;;;;94.22;38.50;;;;;;;3.55;100.00;101912.63;5112063;28;20016;-68
2023/01/25 03:21:21;;;;;;;81.20;34.22;;;;;;;3.52;100.00;101896.81;5111930;28;20027;-67
2023/01/25 03:23:53;;;;;;;86.25;35.97;;;;;;;3.54;100.00;101897.63;5113499;28;20055;-68
2023/01/25 03:26:20;;;;;;;78.07;34.13;;;;;;;3.56;100.00;101892.28;5113730;28;20032;-68
2023/01/25 03:28:45;;;;;;;84.63;38.70;;;;;;;3.61;100.00;101901.81;5113487;28;20024;-68
2023/01/25 03:31:15;;;;;;;81.10;35.28;;;;;;;3.66;100.00;101897.22;5112558;28;20022;-68
2023/01/25 03:33:41;;;;;;;80.55;34.88;;;;;;;3.68;100.00;101913.94;5113186;28;20023;-68
2023/01/25 03:36:07;;;;;;;83.75;34.10;;;;;;;3.70;100.00;101908.56;5112400;28;20028;-68
2023/01/25 03:38:34;;;;;;;74.38;34.47;;;;;;;3.67;100.00;101904.25;5113413;28;20031;-67
2023/01/25 03:40:59;;;;;;;69.80;32.78;;;;;;;3.62;100.00;101892.94;5113025;28;20055;-67
2023/01/25 03:43:26;;;;;;;82.20;34.75;;;;;;;3.72;100.00;101904.09;5113693;28;20443;-67
2023/01/25 03:46:01;;;;;;;70.88;33.50;;;;;;;3.70;100.00;101906.81;5112124;28;20047;-69
2023/01/25 03:48:27;;;;;;;76.18;32.72;;;;;;;3.64;100.00;101887.59;5112956;28;20032;-67
2023/01/25 03:50:58;;;;;;;76.38;32.67;;;;;;;3.69;100.00;101893.59;5112253;28;20031;-68
2023/01/25 03:53:27;;;;;;;79.03;32.30;;;;;;;3.71;100.00;101905.88;5112828;28;20028;-68
2023/01/25 03:56:00;;;;;;;67.90;32.08;;;;;;;3.69;100.00;101893.59;5112848;28;20576;-69
2023/01/25 03:58:27;;;;;;;69.13;31.25;;;;;;;3.63;100.00;101889.38;5111472;28;20369;-71
2023/01/25 04:00:57;;;;;;;66.70;30.90;;;;;;;3.70;100.00;101903.28;5112568;28;20387;-69
2023/01/25 04:03:24;;;;;;;64.80;30.00;;;;;;;3.72;100.00;101917.38;5111484;28;20026;-68
2023/01/25 04:05:50;;;;;;;66.07;30.50;;;;;;;3.69;100.00;101909.50;5112109;28;20019;-69
2023/01/25 04:08:16;;;;;;;60.38;29.17;;;;;;;3.66;100.00;101904.31;5112784;28;20034;-69
2023/01/25 04:10:42;;;;;;;60.55;28.98;;;;;;;3.66;100.00;101909.63;5111270;28;20527;-68
2023/01/25 04:13:07;;;;;;;60.70;29.20;;;;;;;3.71;100.00;101919.13;5111615;28;20020;-69
2023/01/25 04:15:33;;;;;;;62.20;29.92;;;;;;;3.70;100.00;101909.47;5111997;28;20051;-69
2023/01/25 04:17:59;;;;;;;56.90;28.75;;;;;;;3.73;100.00;101911.13;5111333;28;20019;-69
2023/01/25 04:20:24;;;;;;;61.70;29.70;;;;;;;3.72;100.00;101920.03;5111983;28;20023;-70
2023/01/25 04:22:49;;;;;;;67.65;28.60;;;;;;;3.76;100.00;101922.53;5112307;28;20081;-69
2023/01/25 04:25:15;;;;;;;62.10;28.80;;;;;;;3.68;100.00;101907.78;5112548;28;20055;-69
2023/01/25 04:27:40;;;;;;;55.95;28.33;;;;;;;3.79;100.00;101916.22;5111555;28;20016;-69
2023/01/25 04:30:06;;;;;;;62.10;29.08;;;;;;;3.77;100.00;101915.44;5112128;28;20441;-69
2023/01/25 04:32:34;;;;;;;63.63;30.73;;;;;;;3.71;100.00;101902.38;5111913;28;20039;-69
2023/01/25 04:34:59;;;;;;;63.83;30.52;;;;;;;3.85;100.00;101922.22;5112204;28;20024;-69
2023/01/25 04:37:25;;;;;;;61.78;30.30;;;;;;;3.81;100.00;101920.56;5111951;28;20031;-69
2023/01/25 04:39:50;;;;;;;63.30;30.27;;;;;;;3.72;100.00;101906.75;5112353;28;20024;-69
2023/01/25 04:42:16;;;;;;;58.70;27.30;;;;;;;3.82;100.00;101921.44;5111402;28;20043;-70
2023/01/25 04:44:41;;;;;;;55.78;27.27;;;;;;;3.77;100.00;101904.81;5112179;28;20494;-71
2023/01/25 04:47:07;;;;;;;59.63;29.55;;;;;;;3.84;100.00;101924.91;5112425;28;20376;-69
2023/01/25 04:49:32;;;;;;;57.45;28.30;;;;;;;3.84;100.00;101922.25;5111968;28;20425;-69
2023/01/25 04:51:58;;;;;;;55.80;26.85;;;;;;;3.84;100.00;101920.44;5111500;28;20517;-68
2023/01/25 04:54:23;;;;;;;58.00;27.58;;;;;;;3.85;100.00;101916.91;5111091;28;20478;-69
2023/01/25 04:56:48;;;;;;;57.95;26.55;;;;;;;3.84;100.00;101919.59;5110430;28;20580;-69
2023/01/25 04:59:14;;;;;;;56.13;28.17;;;;;;;3.81;100.00;101906.44;5111394;28;20063;-68
2023/01/25 05:01:39;;;;;;;54.15;26.30;;;;;;;3.85;100.00;101914.25;5110994;28;20062;-69
2023/01/25 05:04:05;;;;;;;58.10;27.38;;;;;;;3.87;100.00;101924.81;5111567;28;20042;-70
2023/01/25 05:06:31;;;;;;;55.80;29.80;;;;;;;3.86;100.00;101923.06;5111658;28;20556;-69
2023/01/25 05:08:56;;;;;;;61.13;29.83;;;;;;;3.88;100.00;101926.53;5111528;27;20031;-69
2023/01/25 05:11:21;;;;;;;58.75;28.55;;;;;;;3.89;100.00;101930.91;5111701;28;20072;-68
2023/01/25 05:13:47;;;;;;;55.60;26.38;;;;;;;3.94;100.00;101926.31;5110930;28;20456;-69
2023/01/25 05:16:12;;;;;;;62.03;28.83;;;;;;;3.95;100.00;101920.09;5111376;28;20448;-69
2023/01/25 05:18:38;;;;;;;56.45;27.88;;;;;;;3.98;100.00;101927.94;5111997;28;20426;-69
2023/01/25 05:21:03;;;;;;;60.35;27.10;;;;;;;3.94;100.00;101910.41;5110419;28;20026;-69
2023/01/25 05:23:29;;;;;;;54.83;27.77;;;;;;;4.01;100.00;101917.22;5111875;28;20111;-69
2023/01/25 05:28:38;;;;;;;54.38;27.58;;;;;;;4.00;100.00;101918.16;5110404;28;20092;-68
2023/01/25 05:31:04;;;;;;;61.10;28.55;;;;;;;4.03;100.00;101926.00;5109980;28;20460;-68
2023/01/25 05:33:30;;;;;;;55.25;26.92;;;;;;;4.04;100.00;101925.94;5111094;28;20147;-68
2023/01/25 05:35:57;;;;;;;52.80;26.98;;;;;;;4.02;100.00;101925.13;5109912;28;20048;-68
2023/01/25 05:38:23;;;;;;;53.00;26.02;;;;;;;4.07;100.00;101933.78;5111191;28;20020;-68
2023/01/25 05:40:49;;;;;;;57.50;27.30;;;;;;;3.92;100.00;101907.78;5111190;28;20041;-68
2023/01/25 05:43:14;;;;;;;54.20;27.60;;;;;;;3.95;100.00;101915.66;5111193;28;20028;-68
2023/01/25 05:45:40;;;;;;;51.60;26.48;;;;;;;4.05;100.00;101930.34;5109661;28;20058;-68
2023/01/25 05:48:05;;;;;;;53.17;26.85;;;;;;;4.08;100.00;101934.66;5110747;28;20508;-68
2023/01/25 05:50:31;;;;;;;57.38;28.42;;;;;;;4.03;100.00;101926.84;5110417;28;20540;-69
2023/01/25 05:52:56;;;;;;;54.35;27.13;;;;;;;4.05;100.00;101938.28;5111762;28;20020;-69
2023/01/25 05:55:22;;;;;;;57.60;27.42;;;;;;;4.04;100.00;101925.94;5111141;28;20383;-69
2023/01/25 05:57:47;;;;;;;54.65;27.23;;;;;;;4.04;100.00;101925.06;5109681;28;20096;-67
2023/01/25 06:00:13;;;;;;;52.60;26.45;;;;;;;4.07;100.00;101933.78;5110084;28;20036;-69
2023/01/25 06:02:38;;;;;;;49.40;25.67;;;;;;;3.97;100.00;101923.56;5110120;28;20099;-68
2023/01/25 06:05:04;;;;;;;61.92;29.08;;;;;;;3.99;100.00;101940.28;5111318;28;20031;-69
2023/01/25 06:07:35;;;;;;;55.30;27.67;;;;;;;4.09;100.00;101957.63;5110754;28;20107;-70
2023/01/25 06:13:35;;;;;;;52.38;27.35;;;;;;;4.02;100.00;101940.19;5114948;28;20147;-69
2023/01/25 06:16:00;;;;;;;63.17;29.42;;;;;;;4.07;100.00;101954.16;5114429;28;20072;-69
2023/01/25 06:18:29;;;;;;;54.83;27.45;;;;;;;4.08;100.00;101945.28;5111897;28;20019;-69
2023/01/25 06:20:58;;;;;;;53.97;27.08;;;;;;;4.05;100.00;101951.56;5114827;28;20035;-69
2023/01/25 06:23:24;;;;;;;54.85;28.52;;;;;;;3.91;100.00;101929.09;5113191;28;20051;-69
2023/01/25 06:25:50;;;;;;;61.88;28.40;;;;;;;4.04;100.00;101946.31;5113724;28;20027;-70
2023/01/25 06:28:15;;;;;;;53.22;27.75;;;;;;;4.02;100.00;101941.06;5114552;28;20091;-70
2023/01/25 06:30:41;;;;;;;63.10;29.00;;;;;;;4.03;100.00;101950.75;5113661;28;20114;-70
2023/01/25 06:33:06;;;;;;;62.80;29.85;;;;;;;4.05;100.00;101951.56;5113801;28;20016;-70
2023/01/25 06:35:33;;;;;;;62.05;30.13;;;;;;;4.03;100.00;101953.41;5113213;28;20622;-69
2023/01/25 06:37:59;;;;;;;66.28;29.73;;;;;;;4.07;100.00;101967.44;5114009;28;20023;-68
2023/01/25 06:40:26;;;;;;;63.10;30.27;;;;;;;4.05;100.00;101956.88;5112777;28;20048;-68
2023/01/25 06:42:52;;;;;;;58.22;28.77;;;;;;;4.06;100.00;101958.59;5113739;28;20057;-69
2023/01/25 06:45:17;;;;;;;58.65;29.05;;;;;;;4.06;100.00;101957.72;5113252;28;20028;-70
2023/01/25 06:47:43;;;;;;;63.15;29.63;;;;;;;4.10;100.00;101962.03;5114330;28;20016;-70
2023/01/25 06:50:09;;;;;;;63.22;29.73;;;;;;;4.05;100.00;101954.22;5113204;28;20111;-70
2023/01/25 06:52:36;;;;;;;60.17;28.95;;;;;;;4.07;100.00;101962.97;5114036;28;20043;-68
2023/01/25 06:55:03;;;;;;;60.88;27.65;;;;;;;4.07;100.00;101962.97;5112101;28;20024;-68
2023/01/25 06:57:28;;;;;;;55.63;27.80;;;;;;;4.08;100.00;101962.09;5114279;28;20059;-68
2023/01/25 06:59:54;;;;;;;58.40;26.30;;;;;;;4.08;100.00;101959.44;5114293;27;20028;-69
2023/01/25 07:02:20;;;;;;;56.00;25.80;;;;;;;4.07;100.00;101960.31;5112695;28;20024;-68
2023/01/25 07:04:45;;;;;;;46.22;24.13;;;;;;;3.97;100.00;101943.00;5114287;28;20043;-68
2023/01/25 07:07:11;;;;;;;51.70;25.05;;;;;;;4.08;100.00;101961.19;5114131;28;20068;-67
2023/01/25 07:09:36;;;;;;;50.38;26.20;;;;;;;4.11;100.00;101961.09;5114397;28;20039;-68
2023/01/25 07:12:03;;;;;;;57.05;27.17;;;;;;;4.03;100.00;101947.25;5114109;28;20044;-66
2023/01/25 07:14:32;;;;;;;47.90;25.98;;;;;;;4.12;100.00;101974.31;5114028;28;20102;-69
2023/01/25 07:16:58;;;;;;;49.03;24.92;;;;;;;4.11;100.00;101956.66;5112987;28;20543;-70
2023/01/25 07:19:24;;;;;;;48.45;25.05;;;;;;;4.05;100.00;101951.56;5112421;28;20069;-68
2023/01/25 07:21:49;;;;;;;49.22;24.70;;;;;;;4.12;100.00;101962.81;5113424;28;20529;-69
2023/01/25 07:24:16;;;;;;;49.55;25.25;;;;;;;4.12;100.00;101966.34;5113893;28;20420;-68
2023/01/25 07:26:43;;;;;;;49.25;25.60;;;;;;;4.13;100.00;101967.22;5112913;28;20494;-69
2023/01/25 07:29:14;;;;;;;53.85;25.40;;;;;;;4.13;100.00;101964.59;5113542;28;20076;-69
2023/01/25 07:31:40;;;;;;;50.35;25.05;;;;;;;4.06;100.00;101957.72;5114212;28;20019;-69
2023/01/25 07:34:08;;;;;;;50.55;24.08;;;;;;;4.12;100.00;101960.16;5113737;28;20043;-68
2023/01/25 07:36:34;;;;;;;43.15;23.02;;;;;;;4.11;100.00;101955.78;5113997;28;20026;-70
2023/01/25 07:38:59;;;;;;;48.30;23.73;;;;;;;4.10;100.00;101951.41;5113790;28;20019;-71
2023/01/25 07:41:25;;;;;;;51.88;25.45;;;;;;;4.20;100.00;101974.06;5113741;28;20024;-69
2023/01/25 07:43:52;;;;;;;44.80;24.13;;;;;;;4.24;100.00;101967.72;5113738;28;20479;-70
2023/01/25 07:46:17;;;;;;;46.20;24.42;;;;;;;4.04;100.00;101941.00;5113763;28;20035;-69
2023/01/25 07:48:48;;;;;;;52.72;24.45;;;;;;;4.24;100.00;101973.91;5113676;28;20437;-69
2023/01/25 07:51:25;;;;;;;45.95;23.17;;;;;;;4.28;100.00;101971.97;5113407;28;20452;-69
2023/01/25 07:53:56;;;;;;;46.60;23.77;;;;;;;4.31;100.00;101977.19;5113238;28;20106;-69
2023/01/25 07:56:27;;;;;;;43.22;22.35;;;;;;;4.22;100.00;101964.22;5113342;28;20487;-69
2023/01/25 07:58:57;;;;;;;45.58;22.73;;;;;;;4.35;100.00;101968.19;5113682;28;20027;-69
2023/01/25 08:01:25;;;;;;;39.72;20.73;;;;;;;4.35;100.00;101974.38;5113573;28;20114;-70
2023/01/25 08:03:51;;;;;;;44.67;22.92;;;;;;;4.32;100.00;101979.78;5113360;28;20087;-69
2023/01/25 08:06:21;;;;;;;37.90;20.40;;;;;;;4.31;100.00;101954.16;5112212;28;20028;-69
2023/01/25 08:08:48;;;;;;;37.08;21.23;;;;;;;4.41;100.00;101981.25;5111823;28;20030;-70
2023/01/25 08:11:20;;;;;;;36.47;20.33;;;;;;;4.25;100.00;101946.41;5113093;28;20032;-69
2023/01/25 08:13:46;;;;;;;38.28;19.88;;;;;;;4.40;100.00;101964.47;5112737;28;20024;-70
2023/01/25 08:16:17;;;;;;;37.88;21.27;;;;;;;4.38;100.00;101962.75;5111493;28;20019;-70
2023/01/25 08:18:43;;;;;;;37.50;21.30;;;;;;;4.33;100.00;101956.75;5113038;28;20051;-69
2023/01/25 08:21:08;;;;;;;40.95;20.65;;;;;;;4.42;100.00;101951.13;5111678;28;20067;-69
2023/01/25 08:23:34;;;;;;;38.45;21.08;;;;;;;4.51;100.00;101961.38;5112551;28;20020;-69
2023/01/25 08:26:04;;;;;;;41.00;21.52;;;;;;;4.60;100.00;101959.28;5112805;28;20031;-69
2023/01/25 08:28:30;;;;;;;44.47;23.08;;;;;;;4.63;100.00;101955.63;5111464;28;20020;-69
2023/01/25 08:31:14;;;;;;;41.13;22.88;;;;;;;4.69;100.00;101955.41;5112740;28;20115;-70
2023/01/25 08:33:41;;;;;;;;;;;;;;;4.72;100.00;101960.59;5113513;28;20023;-68
2023/01/25 08:36:08;;;;;;;41.40;22.02;;;;;;;4.71;100.00;101949.09;5112823;28;19907;-69
2023/01/25 08:38:34;;;;;;;43.85;22.98;;;;;;;4.76;100.00;101946.28;5112850;28;20483;-69
2023/01/25 08:41:13;;;;;;;43.17;22.90;;;;;;;4.85;100.00;101955.69;5112363;28;20047;-69
2023/01/25 08:43:39;;;;;;;45.85;23.58;;;;;;;4.88;100.00;101944.94;5112849;27;20031;-69
2023/01/25 08:46:05;;;;;;;44.35;23.75;;;;;;;4.85;100.00;101942.38;5112471;28;20034;-69
2023/01/25 08:48:31;;;;;;;39.40;21.42;;;;;;;4.96;100.00;101956.16;5112687;28;20078;-69
2023/01/25 08:50:56;;;;;;;42.35;23.63;;;;;;;4.87;100.00;101944.06;5112859;28;20023;-69
2023/01/25 08:53:22;;;;;;;39.92;24.00;;;;;;;5.00;100.00;101963.91;5112765;28;20042;-70
2023/01/25 08:55:48;;;;;;;45.13;24.17;;;;;;;4.99;100.00;101950.72;5111089;28;20023;-69
2023/01/25 08:58:15;;;;;;;40.55;23.58;;;;;;;5.04;100.00;101959.38;5112336;28;20130;-70
2023/01/25 09:00:42;;;;;;;47.00;25.27;;;;;;;5.05;100.00;101954.00;5112233;28;20028;-69
2023/01/25 09:03:09;;;;;;;42.88;22.95;;;;;;;5.06;100.00;101961.03;5112271;28;20024;-68
2023/01/25 09:05:36;;;;;;;46.00;24.30;;;;;;;5.08;100.00;101964.50;5112567;28;20356;-69
2023/01/25 09:08:02;;;;;;;44.55;24.73;;;;;;;5.12;100.00;101947.50;5112481;28;20482;-67
2023/01/25 09:10:28;;;;;;;41.28;24.27;;;;;;;5.13;100.00;101954.56;5111993;28;20027;-67
2023/01/25 09:12:54;;;;;;;48.42;25.73;;;;;;;5.10;100.00;101954.69;5112188;28;20420;-68
2023/01/25 09:15:21;;;;;;;46.72;24.50;;;;;;;5.11;100.00;101936.91;5111683;28;20024;-67
2023/01/25 09:17:49;;;;;;;43.55;24.20;;;;;;;5.11;100.00;101932.47;5112121;28;20532;-68
2023/01/25 09:20:15;;;;;;;42.88;24.15;;;;;;;5.18;100.00;101933.97;5112325;28;20533;-67
2023/01/25 09:22:40;;;;;;;46.17;25.92;;;;;;;5.22;100.00;101930.25;5110958;28;20027;-67
2023/01/25 09:25:06;;;;;;;46.50;24.20;;;;;;;5.25;100.00;101932.78;5112032;28;20023;-68
2023/01/25 09:27:31;;;;;;;44.92;26.42;;;;;;;5.27;100.00;101930.06;5111922;28;20064;-68
2023/01/25 09:29:56;;;;;;;47.75;25.42;;;;;;;5.28;100.00;101923.81;5111857;28;20088;-68
2023/01/25 09:32:22;;;;;;;47.10;25.77;;;;;;;5.29;100.00;101918.41;5111285;28;20593;-68
2023/01/25 09:34:47;;;;;;;49.83;27.05;;;;;;;5.31;100.00;101921.91;5111210;28;20036;-67
2023/01/25 09:37:13;;;;;;;46.25;24.90;;;;;;;5.34;100.00;101915.56;5111704;28;20024;-69
2023/01/25 09:39:38;;;;;;;47.67;25.95;;;;;;;5.35;100.00;101915.50;5111315;28;20023;-69
2023/01/25 09:42:25;;;;;;;44.92;26.33;;;;;;;5.42;100.00;101921.47;5110173;28;20040;-68
2023/01/25 09:44:53;;;;;;;47.05;25.27;;;;;;;5.40;100.00;101918.00;5115169;28;20076;-69
2023/01/25 09:47:28;;;;;;;46.17;25.73;;;;;;;5.36;100.00;101911.94;5116180;28;20033;-68
2023/01/25 09:50:03;;;;;;;45.35;25.52;;;;;;;5.37;100.00;101908.34;5115941;28;20023;-69
2023/01/25 09:52:47;;;;;;;53.70;28.58;;;;;;;5.33;100.00;101901.44;5115911;28;20043;-69
2023/01/25 09:55:19;;;;;;;54.03;28.02;;;;;;;5.32;100.00;101897.00;5115957;28;20027;-69
2023/01/25 09:57:47;;;;;;;55.28;28.25;;;;;;;5.34;100.00;101897.84;5115764;28;20560;-68
2023/01/25 10:00:25;;;;;;;51.70;27.10;;;;;;;5.33;100.00;101885.47;5115495;27;20360;-69
2023/01/25 10:02:59;;;;;;;52.25;26.55;;;;;;;5.37;100.00;101887.06;5114300;28;20499;-69
2023/01/25 10:05:36;;;;;;;49.35;27.10;;;;;;;5.44;100.00;101898.31;5115368;28;20388;-69
2023/01/25 10:08:07;;;;;;;53.20;27.35;;;;;;;5.46;100.00;101894.69;5115966;27;20519;-70
2023/01/25 10:10:40;;;;;;;47.13;25.38;;;;;;;5.40;100.00;101881.63;5116049;28;20024;-69
2023/01/25 10:13:14;;;;;;;52.15;27.60;;;;;;;5.37;100.00;101871.09;5115839;28;20051;-68
2023/01/25 10:15:46;;;;;;;49.65;27.30;;;;;;;5.44;100.00;101875.22;5114144;28;20463;-70
2023/01/25 10:18:15;;;;;;;53.35;27.65;;;;;;;5.46;100.00;101869.84;5114005;28;20124;-69
2023/01/25 10:20:56;;;;;;;52.63;27.85;;;;;;;5.46;100.00;101872.50;5113990;28;20023;-69
2023/01/25 10:23:59;;;;;;;47.53;26.08;;;;;;;5.48;100.00;101871.50;5115559;28;20104;-69
2023/01/25 10:29:48;;;;;;;46.97;25.38;;;;;;;5.47;100.00;101855.59;5115608;28;20388;-70
2023/01/25 10:32:23;;;;;;;45.60;25.80;;;;;;;5.37;100.00;101836.53;5115448;28;20457;-70
2023/01/25 10:34:49;;;;;;;46.33;25.45;;;;;;;5.46;100.00;101853.88;5115050;28;20016;-69
2023/01/25 10:37:21;;;;;;;51.47;27.60;;;;;;;5.44;100.00;101845.09;5114169;28;20048;-69
2023/01/25 10:40:12;;;;;;;49.67;26.75;;;;;;;5.49;100.00;101841.31;5115064;28;20027;-69
2023/01/25 10:42:50;;;;;;;47.88;26.08;;;;;;;5.47;100.00;101840.50;5114769;28;20040;-69
2023/01/25 10:45:16;;;;;;;45.88;26.02;;;;;;;5.51;100.00;101836.78;5115151;28;20023;-69
2023/01/25 10:47:47;;;;;;;52.78;27.05;;;;;;;5.50;100.00;101829.75;5115358;28;20081;-69
2023/01/25 10:50:37;;;;;;;47.30;26.95;;;;;;;5.49;100.00;101829.81;5113646;28;20031;-69
2023/01/25 10:53:03;;;;;;;53.30;28.73;;;;;;;5.49;100.00;101828.03;5113466;28;20024;-68
2023/01/25 10:55:28;;;;;;;50.03;27.83;;;;;;;5.47;100.00;101829.88;5113262;28;20031;-69
2023/01/25 10:57:56;;;;;;;52.08;28.52;;;;;;;5.38;100.00;101816.97;5114246;28;20058;-68
2023/01/25 11:00:27;;;;;;;53.00;27.77;;;;;;;5.42;100.00;101820.38;5114452;28;20455;-69
2023/01/25 11:02:53;;;;;;;50.13;27.75;;;;;;;5.40;100.00;101817.78;5114808;28;20047;-67
2023/01/25 11:05:39;;;;;;;49.25;28.13;;;;;;;5.36;100.00;101812.63;5114597;28;20019;-67
2023/01/25 11:08:24;;;;;;;48.60;27.27;;;;;;;5.39;100.00;101810.72;5113262;28;20045;-68
2023/01/25 11:10:51;;;;;;;52.38;28.83;;;;;;;5.35;100.00;101808.25;5113339;28;20061;-69
2023/01/25 11:13:32;;;;;;;54.75;29.15;;;;;;;5.38;100.00;101810.78;5114307;28;20099;-69
2023/01/25 11:16:00;;;;;;;51.22;28.00;;;;;;;5.38;100.00;101808.97;5114538;28;20054;-70
2023/01/25 11:18:33;;;;;;;48.10;25.73;;;;;;;5.36;100.00;101805.53;5114397;28;20387;-70
2023/01/25 11:21:17;;;;;;;45.72;26.17;;;;;;;5.39;100.00;101799.22;5114092;27;20164;-70
2023/01/25 11:23:43;;;;;;;50.85;25.42;;;;;;;5.37;100.00;101795.75;5114513;28;20024;-70
2023/01/25 11:26:15;;;;;;;52.40;27.58;;;;;;;5.39;100.00;101797.44;5114078;28;20420;-70
2023/01/25 11:28:40;;;;;;;45.78;26.73;;;;;;;5.39;100.00;101789.44;5113797;28;20405;-70
2023/01/25 11:31:15;;;;;;;50.08;26.38;;;;;;;5.39;100.00;101791.22;5113927;28;20026;-70
2023/01/25 11:33:41;;;;;;;46.30;26.23;;;;;;;5.40;100.00;101785.84;5112920;28;20032;-66